21.09.2021

Aktuelles

  • Betriebszeiten: Normal gemäß AIP Bitte NOTAMs lesen! Verbindliche Informationen nur unter: www.airport-hof.de [Mehr …]
  • Bückertreffen Hof 2019
    Vom 31. Mai bis 02. Juni trafen sich auf Einladung unseres Vorstandes Bücker-Piloten aus Deutschland und ganz Europa. Für das Treffen wurde ein umfangreiches und durchgeplantes Programm erstellt, bei dem neben fliegerischen Ausflügen auch die [Mehr ...]

Lesen Sie Reiseberichte unserer Mitglieder

Reiseberichte

Flugzeugwartung einmal anders – in Brasilien/Amazonas

Ungewöhnliche Einsichten aus Brasilien / Amazonas…

Liebe Fliegerfreunde,
eigentlich wollte uns unser Clubmitglied Manfred Kunz einen Bericht über einen Flug über die Amazonas-Wälder schicken. Leider hat der Flug in der Form, wie er sich das gewünscht hatte, gar nicht so stattgefunden. Das Wasserflugzeug war in der Werft! [Mehr …]

kalifornien4
Reiseberichte

Kalifornien von oben

Eine Woche Zwischenstop in Santa Barbara sollte von uns Sichtfliegern unbedingt zu einem Erkundungsflug dieses vielfältigen und abwechslungsreichen Landstriches genutzt werden. Der Airport von Santa Barbara, KSBA, liegt einige Meilen westlich der Stadt. [Mehr …]

Flugzeug-Reservierung

METAR EDQM

EDQM 201750Z 02006KT 9999 OVC042 09/05 Q1023